sensor_id;sensor_type;location;lat;lon;timestamp;temperature;humidity
64869;DHT22;51349;52.424;10.840;2023-01-15T00:00:35;10.00;99.90
64869;DHT22;51349;52.424;10.840;2023-01-15T00:05:36;10.00;99.90
64869;DHT22;51349;52.424;10.840;2023-01-15T00:10:37;10.00;99.90
64869;DHT22;51349;52.424;10.840;2023-01-15T00:15:38;10.10;99.90
64869;DHT22;51349;52.424;10.840;2023-01-15T00:20:38;9.90;99.90
64869;DHT22;51349;52.424;10.840;2023-01-15T00:25:39;9.70;99.90
64869;DHT22;51349;52.424;10.840;2023-01-15T00:30:58;9.70;99.90
64869;DHT22;51349;52.424;10.840;2023-01-15T00:35:58;9.90;99.90
64869;DHT22;51349;52.424;10.840;2023-01-15T00:40:59;9.90;99.90
64869;DHT22;51349;52.424;10.840;2023-01-15T00:46:00;9.80;99.90
64869;DHT22;51349;52.424;10.840;2023-01-15T00:51:01;9.80;99.90
64869;DHT22;51349;52.424;10.840;2023-01-15T00:56:02;9.70;99.90
64869;DHT22;51349;52.424;10.840;2023-01-15T01:01:03;9.70;99.90
64869;DHT22;51349;52.424;10.840;2023-01-15T01:06:04;9.60;99.90
64869;DHT22;51349;52.424;10.840;2023-01-15T01:11:08;9.60;99.90
64869;DHT22;51349;52.424;10.840;2023-01-15T01:21:31;8.90;99.90
64869;DHT22;51349;52.424;10.840;2023-01-15T01:26:32;8.50;99.90
64869;DHT22;51349;52.424;10.840;2023-01-15T01:31:33;8.10;99.90
64869;DHT22;51349;52.424;10.840;2023-01-15T01:36:35;7.80;99.90
64869;DHT22;51349;52.424;10.840;2023-01-15T01:41:37;7.60;99.90
64869;DHT22;51349;52.424;10.840;2023-01-15T01:46:38;7.40;99.90
64869;DHT22;51349;52.424;10.840;2023-01-15T01:51:48;7.20;99.90
64869;DHT22;51349;52.424;10.840;2023-01-15T01:56:50;7.10;99.90
64869;DHT22;51349;52.424;10.840;2023-01-15T02:01:51;6.90;99.90
64869;DHT22;51349;52.424;10.840;2023-01-15T02:06:53;6.80;99.90
64869;DHT22;51349;52.424;10.840;2023-01-15T02:11:56;6.60;99.90
64869;DHT22;51349;52.424;10.840;2023-01-15T02:22:31;6.10;99.90
64869;DHT22;51349;52.424;10.840;2023-01-15T02:27:35;6.00;99.90
64869;DHT22;51349;52.424;10.840;2023-01-15T02:32:50;6.00;99.90
64869;DHT22;51349;52.424;10.840;2023-01-15T02:37:55;5.80;99.90
64869;DHT22;51349;52.424;10.840;2023-01-15T02:42:58;5.70;99.90
64869;DHT22;51349;52.424;10.840;2023-01-15T02:48:04;5.70;99.90
64869;DHT22;51349;52.424;10.840;2023-01-15T02:53:11;5.60;99.90
64869;DHT22;51349;52.424;10.840;2023-01-15T02:58:16;5.60;99.90
64869;DHT22;51349;52.424;10.840;2023-01-15T03:08:24;5.50;99.90
64869;DHT22;51349;52.424;10.840;2023-01-15T03:18:49;5.30;99.90
64869;DHT22;51349;52.424;10.840;2023-01-15T03:23:53;5.20;99.90
64869;DHT22;51349;52.424;10.840;2023-01-15T03:28:56;5.20;99.90
64869;DHT22;51349;52.424;10.840;2023-01-15T03:33:57;5.10;99.90
64869;DHT22;51349;52.424;10.840;2023-01-15T03:38:58;5.10;99.90
64869;DHT22;51349;52.424;10.840;2023-01-15T03:55:38;5.10;99.90
64869;DHT22;51349;52.424;10.840;2023-01-15T04:00:51;5.00;99.90
64869;DHT22;51349;52.424;10.840;2023-01-15T04:05:58;5.00;99.90
64869;DHT22;51349;52.424;10.840;2023-01-15T04:11:01;5.00;99.90
64869;DHT22;51349;52.424;10.840;2023-01-15T04:16:01;5.00;99.90
64869;DHT22;51349;52.424;10.840;2023-01-15T04:21:02;5.10;99.90
64869;DHT22;51349;52.424;10.840;2023-01-15T04:26:03;5.00;99.90
64869;DHT22;51349;52.424;10.840;2023-01-15T04:31:04;5.00;99.90
64869;DHT22;51349;52.424;10.840;2023-01-15T04:36:05;5.00;99.90
64869;DHT22;51349;52.424;10.840;2023-01-15T04:41:06;5.00;99.90
64869;DHT22;51349;52.424;10.840;2023-01-15T04:46:25;5.00;99.90
64869;DHT22;51349;52.424;10.840;2023-01-15T04:51:26;5.10;99.90
64869;DHT22;51349;52.424;10.840;2023-01-15T04:56:27;5.00;99.90
64869;DHT22;51349;52.424;10.840;2023-01-15T05:01:27;5.00;99.90
64869;DHT22;51349;52.424;10.840;2023-01-15T05:06:28;5.00;99.90
64869;DHT22;51349;52.424;10.840;2023-01-15T05:11:33;5.10;99.90
64869;DHT22;51349;52.424;10.840;2023-01-15T05:16:34;5.00;99.90
64869;DHT22;51349;52.424;10.840;2023-01-15T05:21:38;5.10;99.90
64869;DHT22;51349;52.424;10.840;2023-01-15T05:26:40;5.00;99.90
64869;DHT22;51349;52.424;10.840;2023-01-15T05:31:41;5.10;99.90
64869;DHT22;51349;52.424;10.840;2023-01-15T05:36:44;5.00;99.90
64869;DHT22;51349;52.424;10.840;2023-01-15T05:41:45;5.10;99.90
64869;DHT22;51349;52.424;10.840;2023-01-15T05:46:50;5.10;99.90
64869;DHT22;51349;52.424;10.840;2023-01-15T05:51:52;5.10;99.90
64869;DHT22;51349;52.424;10.840;2023-01-15T05:56:53;5.10;99.90
64869;DHT22;51349;52.424;10.840;2023-01-15T06:01:54;5.10;99.90
64869;DHT22;51349;52.424;10.840;2023-01-15T06:06:56;5.10;99.90
64869;DHT22;51349;52.424;10.840;2023-01-15T06:11:57;5.10;99.90
64869;DHT22;51349;52.424;10.840;2023-01-15T06:16:58;5.10;99.90
64869;DHT22;51349;52.424;10.840;2023-01-15T06:21:58;5.10;99.90
64869;DHT22;51349;52.424;10.840;2023-01-15T06:26:59;5.10;99.90
64869;DHT22;51349;52.424;10.840;2023-01-15T06:31:59;5.10;99.90
64869;DHT22;51349;52.424;10.840;2023-01-15T06:37:00;5.10;99.90
64869;DHT22;51349;52.424;10.840;2023-01-15T06:42:01;5.10;99.90
64869;DHT22;51349;52.424;10.840;2023-01-15T06:47:20;5.10;99.90
64869;DHT22;51349;52.424;10.840;2023-01-15T06:52:23;5.20;99.90
64869;DHT22;51349;52.424;10.840;2023-01-15T06:57:23;5.10;99.90
64869;DHT22;51349;52.424;10.840;2023-01-15T07:02:24;5.20;99.90
64869;DHT22;51349;52.424;10.840;2023-01-15T07:07:27;5.20;99.90
64869;DHT22;51349;52.424;10.840;2023-01-15T07:12:27;5.20;99.90
64869;DHT22;51349;52.424;10.840;2023-01-15T07:17:28;5.20;99.90
64869;DHT22;51349;52.424;10.840;2023-01-15T07:22:29;5.20;99.90
64869;DHT22;51349;52.424;10.840;2023-01-15T07:27:29;5.20;99.90
64869;DHT22;51349;52.424;10.840;2023-01-15T07:32:30;5.20;99.90
64869;DHT22;51349;52.424;10.840;2023-01-15T07:37:31;5.00;99.90
64869;DHT22;51349;52.424;10.840;2023-01-15T07:42:31;5.10;99.90
64869;DHT22;51349;52.424;10.840;2023-01-15T07:47:50;5.00;99.90
64869;DHT22;51349;52.424;10.840;2023-01-15T07:53:11;5.10;99.90
64869;DHT22;51349;52.424;10.840;2023-01-15T07:58:12;5.10;99.90
64869;DHT22;51349;52.424;10.840;2023-01-15T08:03:12;5.20;99.90
64869;DHT22;51349;52.424;10.840;2023-01-15T08:08:14;5.10;99.90
64869;DHT22;51349;52.424;10.840;2023-01-15T08:13:15;5.20;99.90
64869;DHT22;51349;52.424;10.840;2023-01-15T08:18:34;5.20;99.90
64869;DHT22;51349;52.424;10.840;2023-01-15T08:23:35;5.30;99.90
64869;DHT22;51349;52.424;10.840;2023-01-15T08:28:36;5.30;99.90
64869;DHT22;51349;52.424;10.840;2023-01-15T08:33:36;5.40;99.90
64869;DHT22;51349;52.424;10.840;2023-01-15T08:38:37;5.40;99.90
64869;DHT22;51349;52.424;10.840;2023-01-15T08:43:38;5.50;99.90
64869;DHT22;51349;52.424;10.840;2023-01-15T08:48:38;5.50;99.90
64869;DHT22;51349;52.424;10.840;2023-01-15T08:53:39;5.50;99.90
64869;DHT22;51349;52.424;10.840;2023-01-15T08:58:40;5.50;99.90
64869;DHT22;51349;52.424;10.840;2023-01-15T09:03:41;5.60;99.90
64869;DHT22;51349;52.424;10.840;2023-01-15T09:08:42;5.70;99.90
64869;DHT22;51349;52.424;10.840;2023-01-15T09:13:43;5.70;99.90
64869;DHT22;51349;52.424;10.840;2023-01-15T09:18:43;5.70;99.90
64869;DHT22;51349;52.424;10.840;2023-01-15T09:23:44;5.70;99.90
64869;DHT22;51349;52.424;10.840;2023-01-15T09:28:44;5.70;99.90
64869;DHT22;51349;52.424;10.840;2023-01-15T09:33:45;5.80;99.90
64869;DHT22;51349;52.424;10.840;2023-01-15T09:38:47;5.80;99.90
64869;DHT22;51349;52.424;10.840;2023-01-15T09:44:19;5.90;99.90
64869;DHT22;51349;52.424;10.840;2023-01-15T09:55:07;6.00;99.90
64869;DHT22;51349;52.424;10.840;2023-01-15T10:00:18;6.00;99.90
64869;DHT22;51349;52.424;10.840;2023-01-15T10:05:26;6.00;99.90
64869;DHT22;51349;52.424;10.840;2023-01-15T10:10:44;6.10;99.90
64869;DHT22;51349;52.424;10.840;2023-01-15T10:15:46;6.10;99.90
64869;DHT22;51349;52.424;10.840;2023-01-15T10:21:26;6.10;99.90
64869;DHT22;51349;52.424;10.840;2023-01-15T10:31:52;6.30;99.90
64869;DHT22;51349;52.424;10.840;2023-01-15T10:37:11;6.30;99.90
64869;DHT22;51349;52.424;10.840;2023-01-15T10:47:36;6.50;99.90
64869;DHT22;51349;52.424;10.840;2023-01-15T10:52:40;6.50;99.90
64869;DHT22;51349;52.424;10.840;2023-01-15T10:57:52;6.50;99.90
64869;DHT22;51349;52.424;10.840;2023-01-15T11:03:02;6.40;99.90
64869;DHT22;51349;52.424;10.840;2023-01-15T11:08:24;6.30;99.90
64869;DHT22;51349;52.424;10.840;2023-01-15T11:13:31;6.30;99.90
64869;DHT22;51349;52.424;10.840;2023-01-15T11:18:52;6.30;99.90
64869;DHT22;51349;52.424;10.840;2023-01-15T11:24:16;6.30;99.90
64869;DHT22;51349;52.424;10.840;2023-01-15T11:29:35;6.20;99.90
64869;DHT22;51349;52.424;10.840;2023-01-15T11:34:38;6.20;99.90
64869;DHT22;51349;52.424;10.840;2023-01-15T11:39:39;6.20;99.90
64869;DHT22;51349;52.424;10.840;2023-01-15T11:44:56;6.30;99.90
64869;DHT22;51349;52.424;10.840;2023-01-15T11:50:18;6.40;99.90
64869;DHT22;51349;52.424;10.840;2023-01-15T11:55:38;6.50;99.90
64869;DHT22;51349;52.424;10.840;2023-01-15T12:00:42;7.00;99.90
64869;DHT22;51349;52.424;10.840;2023-01-15T12:05:46;8.80;99.90
64869;DHT22;51349;52.424;10.840;2023-01-15T12:11:00;9.50;99.90
64869;DHT22;51349;52.424;10.840;2023-01-15T12:27:32;11.20;99.90
64869;DHT22;51349;52.424;10.840;2023-01-15T12:32:42;11.30;99.90
64869;DHT22;51349;52.424;10.840;2023-01-15T12:37:47;11.60;99.90
64869;DHT22;51349;52.424;10.840;2023-01-15T12:42:51;10.80;99.90
64869;DHT22;51349;52.424;10.840;2023-01-15T12:48:12;10.40;99.90
64869;DHT22;51349;52.424;10.840;2023-01-15T12:53:41;9.60;99.90
64869;DHT22;51349;52.424;10.840;2023-01-15T13:09:21;7.90;99.90
64869;DHT22;51349;52.424;10.840;2023-01-15T13:14:25;7.80;99.90
64869;DHT22;51349;52.424;10.840;2023-01-15T13:19:28;7.70;99.90
64869;DHT22;51349;52.424;10.840;2023-01-15T13:40:43;7.40;99.90
64869;DHT22;51349;52.424;10.840;2023-01-15T13:45:50;7.70;99.90
64869;DHT22;51349;52.424;10.840;2023-01-15T13:50:56;7.40;99.90
64869;DHT22;51349;52.424;10.840;2023-01-15T13:56:08;7.30;99.90
64869;DHT22;51349;52.424;10.840;2023-01-15T14:06:19;7.20;99.90
64869;DHT22;51349;52.424;10.840;2023-01-15T14:11:42;7.20;99.90
64869;DHT22;51349;52.424;10.840;2023-01-15T14:22:42;7.00;99.90
64869;DHT22;51349;52.424;10.840;2023-01-15T14:38:03;7.00;99.90
64869;DHT22;51349;52.424;10.840;2023-01-15T14:43:13;7.10;99.90
64869;DHT22;51349;52.424;10.840;2023-01-15T14:53:30;6.90;99.90
64869;DHT22;51349;52.424;10.840;2023-01-15T15:03:55;7.00;99.90
64869;DHT22;51349;52.424;10.840;2023-01-15T15:09:02;7.00;99.90
64869;DHT22;51349;52.424;10.840;2023-01-15T15:14:05;7.00;99.90
64869;DHT22;51349;52.424;10.840;2023-01-15T15:19:20;7.10;99.90
64869;DHT22;51349;52.424;10.840;2023-01-15T15:24:32;7.00;99.90
64869;DHT22;51349;52.424;10.840;2023-01-15T15:29:36;7.10;99.90
64869;DHT22;51349;52.424;10.840;2023-01-15T15:34:39;7.10;99.90
64869;DHT22;51349;52.424;10.840;2023-01-15T15:39:51;7.00;99.90
64869;DHT22;51349;52.424;10.840;2023-01-15T15:44:56;7.20;99.90
64869;DHT22;51349;52.424;10.840;2023-01-15T15:50:23;7.10;99.90
64869;DHT22;51349;52.424;10.840;2023-01-15T15:55:26;7.10;99.90
64869;DHT22;51349;52.424;10.840;2023-01-15T16:00:38;7.10;99.90
64869;DHT22;51349;52.424;10.840;2023-01-15T16:05:40;7.10;99.90
64869;DHT22;51349;52.424;10.840;2023-01-15T16:10:41;7.00;99.90
64869;DHT22;51349;52.424;10.840;2023-01-15T16:15:43;6.90;99.90
64869;DHT22;51349;52.424;10.840;2023-01-15T16:20:47;7.00;99.90
64869;DHT22;51349;52.424;10.840;2023-01-15T16:31:00;7.00;99.90
64869;DHT22;51349;52.424;10.840;2023-01-15T16:36:02;7.00;99.90
64869;DHT22;51349;52.424;10.840;2023-01-15T16:41:04;7.00;99.90
64869;DHT22;51349;52.424;10.840;2023-01-15T16:46:15;7.00;99.90
64869;DHT22;51349;52.424;10.840;2023-01-15T16:51:34;7.10;99.90
64869;DHT22;51349;52.424;10.840;2023-01-15T17:01:40;7.10;99.90
64869;DHT22;51349;52.424;10.840;2023-01-15T17:06:42;7.10;99.90
64869;DHT22;51349;52.424;10.840;2023-01-15T17:11:48;7.00;99.90
64869;DHT22;51349;52.424;10.840;2023-01-15T17:22:27;6.80;99.90
64869;DHT22;51349;52.424;10.840;2023-01-15T17:27:29;6.90;99.90
64869;DHT22;51349;52.424;10.840;2023-01-15T17:32:33;6.90;99.90
64869;DHT22;51349;52.424;10.840;2023-01-15T17:37:40;6.90;99.90
64869;DHT22;51349;52.424;10.840;2023-01-15T17:42:40;6.80;99.90
64869;DHT22;51349;52.424;10.840;2023-01-15T17:47:41;6.80;99.90
64869;DHT22;51349;52.424;10.840;2023-01-15T17:52:42;6.80;99.90
64869;DHT22;51349;52.424;10.840;2023-01-15T17:57:42;6.80;99.90
64869;DHT22;51349;52.424;10.840;2023-01-15T18:03:01;6.90;99.90
64869;DHT22;51349;52.424;10.840;2023-01-15T18:08:21;6.90;99.90
64869;DHT22;51349;52.424;10.840;2023-01-15T18:13:21;6.90;99.90
64869;DHT22;51349;52.424;10.840;2023-01-15T18:18:22;7.00;99.90
64869;DHT22;51349;52.424;10.840;2023-01-15T18:23:22;6.90;99.90
64869;DHT22;51349;52.424;10.840;2023-01-15T18:28:25;6.90;99.90
64869;DHT22;51349;52.424;10.840;2023-01-15T18:33:25;6.90;99.90
64869;DHT22;51349;52.424;10.840;2023-01-15T18:38:26;6.80;99.90
64869;DHT22;51349;52.424;10.840;2023-01-15T18:43:27;6.80;99.90
64869;DHT22;51349;52.424;10.840;2023-01-15T18:48:46;6.80;99.90
64869;DHT22;51349;52.424;10.840;2023-01-15T18:53:47;6.80;99.90
64869;DHT22;51349;52.424;10.840;2023-01-15T18:58:48;6.80;99.90
64869;DHT22;51349;52.424;10.840;2023-01-15T19:03:48;6.80;99.90
64869;DHT22;51349;52.424;10.840;2023-01-15T19:08:49;6.80;99.90
64869;DHT22;51349;52.424;10.840;2023-01-15T19:13:50;6.80;99.90
64869;DHT22;51349;52.424;10.840;2023-01-15T19:19:10;6.80;99.90
64869;DHT22;51349;52.424;10.840;2023-01-15T19:24:11;6.80;99.90
64869;DHT22;51349;52.424;10.840;2023-01-15T19:29:12;6.70;99.90
64869;DHT22;51349;52.424;10.840;2023-01-15T19:34:13;6.60;99.90
64869;DHT22;51349;52.424;10.840;2023-01-15T19:39:17;6.60;99.90
64869;DHT22;51349;52.424;10.840;2023-01-15T19:44:17;6.70;99.90
64869;DHT22;51349;52.424;10.840;2023-01-15T19:49:37;6.70;99.90
64869;DHT22;51349;52.424;10.840;2023-01-15T19:54:56;6.70;99.90
64869;DHT22;51349;52.424;10.840;2023-01-15T19:59:56;6.80;99.90
64869;DHT22;51349;52.424;10.840;2023-01-15T20:04:57;6.80;99.90
64869;DHT22;51349;52.424;10.840;2023-01-15T20:09:58;6.80;99.90
64869;DHT22;51349;52.424;10.840;2023-01-15T20:14:58;6.80;99.90
64869;DHT22;51349;52.424;10.840;2023-01-15T20:20:00;6.80;99.90
64869;DHT22;51349;52.424;10.840;2023-01-15T20:25:01;6.80;99.90
64869;DHT22;51349;52.424;10.840;2023-01-15T20:30:15;6.80;99.90
64869;DHT22;51349;52.424;10.840;2023-01-15T20:35:21;6.80;99.90
64869;DHT22;51349;52.424;10.840;2023-01-15T20:40:22;6.70;99.90
64869;DHT22;51349;52.424;10.840;2023-01-15T20:45:24;6.60;99.90
64869;DHT22;51349;52.424;10.840;2023-01-15T20:50:27;6.60;99.90
64869;DHT22;51349;52.424;10.840;2023-01-15T20:55:29;6.60;99.90
64869;DHT22;51349;52.424;10.840;2023-01-15T21:00:41;6.60;99.90
64869;DHT22;51349;52.424;10.840;2023-01-15T21:05:42;6.50;99.90
64869;DHT22;51349;52.424;10.840;2023-01-15T21:10:43;6.40;99.90
64869;DHT22;51349;52.424;10.840;2023-01-15T21:15:43;6.50;99.90
64869;DHT22;51349;52.424;10.840;2023-01-15T21:20:44;6.50;99.90
64869;DHT22;51349;52.424;10.840;2023-01-15T21:25:45;6.40;99.90
64869;DHT22;51349;52.424;10.840;2023-01-15T21:30:45;6.40;99.90
64869;DHT22;51349;52.424;10.840;2023-01-15T21:35:46;6.30;99.90
64869;DHT22;51349;52.424;10.840;2023-01-15T21:40:47;6.40;99.90
64869;DHT22;51349;52.424;10.840;2023-01-15T21:45:48;6.40;99.90
64869;DHT22;51349;52.424;10.840;2023-01-15T21:50:50;6.40;99.90
64869;DHT22;51349;52.424;10.840;2023-01-15T21:55:51;6.30;99.90
64869;DHT22;51349;52.424;10.840;2023-01-15T22:00:51;6.10;99.90
64869;DHT22;51349;52.424;10.840;2023-01-15T22:05:52;6.10;99.90
64869;DHT22;51349;52.424;10.840;2023-01-15T22:10:53;5.90;99.90
64869;DHT22;51349;52.424;10.840;2023-01-15T22:15:54;5.90;99.90
64869;DHT22;51349;52.424;10.840;2023-01-15T22:21:13;5.80;99.90
64869;DHT22;51349;52.424;10.840;2023-01-15T22:26:19;5.70;99.90
64869;DHT22;51349;52.424;10.840;2023-01-15T22:31:20;5.70;99.90
64869;DHT22;51349;52.424;10.840;2023-01-15T22:36:21;5.60;99.90
64869;DHT22;51349;52.424;10.840;2023-01-15T22:41:23;5.40;99.90
64869;DHT22;51349;52.424;10.840;2023-01-15T22:46:43;5.50;99.90
64869;DHT22;51349;52.424;10.840;2023-01-15T22:51:44;5.40;99.90
64869;DHT22;51349;52.424;10.840;2023-01-15T22:56:45;5.30;99.90
64869;DHT22;51349;52.424;10.840;2023-01-15T23:01:46;5.30;99.90
64869;DHT22;51349;52.424;10.840;2023-01-15T23:06:47;5.30;99.90
64869;DHT22;51349;52.424;10.840;2023-01-15T23:11:49;5.20;99.90
64869;DHT22;51349;52.424;10.840;2023-01-15T23:16:51;5.20;99.90
64869;DHT22;51349;52.424;10.840;2023-01-15T23:21:52;5.10;99.90
64869;DHT22;51349;52.424;10.840;2023-01-15T23:26:53;4.80;99.90
64869;DHT22;51349;52.424;10.840;2023-01-15T23:31:53;4.90;99.90
64869;DHT22;51349;52.424;10.840;2023-01-15T23:36:54;4.90;99.90
64869;DHT22;51349;52.424;10.840;2023-01-15T23:41:55;4.70;99.90
64869;DHT22;51349;52.424;10.840;2023-01-15T23:47:14;4.70;99.90
64869;DHT22;51349;52.424;10.840;2023-01-15T23:52:15;4.70;99.90
64869;DHT22;51349;52.424;10.840;2023-01-15T23:57:15;4.60;99.90
